createdAt,value
2022-12-27T00:00:10.018Z,1013.61
2022-12-27T00:00:55.919Z,1013.41
2022-12-27T00:01:41.999Z,1013.41
2022-12-27T00:02:27.919Z,1013.41
2022-12-27T00:03:13.953Z,1013.51
2022-12-27T00:03:59.905Z,1013.71
2022-12-27T00:04:45.875Z,1013.71
2022-12-27T00:05:31.947Z,1013.61
2022-12-27T00:06:17.841Z,1013.61
2022-12-27T00:07:03.918Z,1013.41
2022-12-27T00:07:49.949Z,1013.41
2022-12-27T00:08:35.850Z,1013.51
2022-12-27T00:09:21.890Z,1013.61
2022-12-27T00:10:07.953Z,1013.71
2022-12-27T00:10:54.003Z,1013.61
2022-12-27T00:11:39.907Z,1013.61
2022-12-27T00:12:25.883Z,1013.41
2022-12-27T00:13:11.965Z,1013.61
2022-12-27T00:13:57.985Z,1013.61
2022-12-27T00:14:44.030Z,1013.61
2022-12-27T00:15:29.961Z,1013.71
2022-12-27T00:16:15.929Z,1013.61
2022-12-27T00:17:01.946Z,1013.51
2022-12-27T00:17:47.906Z,1013.51
2022-12-27T00:18:33.963Z,1013.82
2022-12-27T00:19:19.959Z,1013.61
2022-12-27T00:20:11.056Z,1013.88
2022-12-27T00:20:51.983Z,1013.88
2022-12-27T00:21:37.919Z,1013.82
2022-12-27T00:22:23.971Z,1013.98
2022-12-27T00:23:09.947Z,1013.88
2022-12-27T00:23:55.892Z,1013.82
2022-12-27T00:24:41.959Z,1013.82
2022-12-27T00:25:27.945Z,1013.71
2022-12-27T00:26:13.965Z,1013.61
2022-12-27T00:26:59.904Z,1013.61
2022-12-27T00:27:45.917Z,1013.61
2022-12-27T00:28:31.983Z,1013.82
2022-12-27T00:29:17.942Z,1013.71
2022-12-27T00:30:04.056Z,1013.61
2022-12-27T00:30:49.932Z,1013.61
2022-12-27T00:31:36.011Z,1013.41
2022-12-27T00:32:21.980Z,1013.61
2022-12-27T00:33:08.092Z,1013.71
2022-12-27T00:33:53.956Z,1013.88
2022-12-27T00:34:40.236Z,1013.88
2022-12-27T00:35:25.947Z,1013.71
2022-12-27T00:36:12.017Z,1013.88
2022-12-27T00:36:57.983Z,1013.88
2022-12-27T00:37:43.970Z,1013.88
2022-12-27T00:38:30.021Z,1013.88
2022-12-27T00:39:15.948Z,1013.51
2022-12-27T00:40:02.151Z,1013.61
2022-12-27T00:40:47.995Z,1013.61
2022-12-27T00:41:34.013Z,1013.61
2022-12-27T00:42:19.976Z,1013.71
2022-12-27T00:43:05.968Z,1013.82
2022-12-27T00:43:51.971Z,1013.82
2022-12-27T00:44:38.006Z,1013.82
2022-12-27T00:45:24.160Z,1013.82
2022-12-27T00:46:10.133Z,1013.88
2022-12-27T00:46:55.990Z,1013.61
2022-12-27T00:47:42.059Z,1013.61
2022-12-27T00:48:28.056Z,1013.71
2022-12-27T00:49:14.005Z,1013.82
2022-12-27T00:50:00.006Z,1013.82
2022-12-27T00:50:45.990Z,1013.82
2022-12-27T00:51:32.066Z,1013.82
2022-12-27T00:52:18.045Z,1013.82
2022-12-27T00:53:04.031Z,1013.82
2022-12-27T00:53:50.041Z,1013.82
2022-12-27T00:54:35.983Z,1013.88
2022-12-27T00:55:21.995Z,1013.71
2022-12-27T00:56:08.026Z,1013.71
2022-12-27T00:56:54.033Z,1014.09
2022-12-27T00:57:40.112Z,1014.09
2022-12-27T00:58:26.034Z,1013.82
2022-12-27T00:59:12.070Z,1013.82
2022-12-27T00:59:58.047Z,1013.88
2022-12-27T01:00:44.194Z,1013.88
2022-12-27T01:01:30.312Z,1013.82
2022-12-27T01:02:16.073Z,1013.82
2022-12-27T01:03:02.155Z,1013.88
2022-12-27T01:03:48.098Z,1013.88
2022-12-27T01:04:34.091Z,1013.88
2022-12-27T01:05:20.093Z,1013.88
2022-12-27T01:06:06.043Z,1013.82
2022-12-27T01:06:52.026Z,1013.82
2022-12-27T01:07:38.083Z,1013.71
2022-12-27T01:08:24.074Z,1013.88
2022-12-27T01:09:10.094Z,1013.88
2022-12-27T01:09:56.043Z,1014.29
2022-12-27T01:10:42.274Z,1014.29
2022-12-27T01:11:28.642Z,1014.19
2022-12-27T01:12:14.044Z,1014.09
2022-12-27T01:13:00.076Z,1013.98
2022-12-27T01:13:46.125Z,1013.98
2022-12-27T01:14:32.118Z,1013.88
2022-12-27T01:15:18.192Z,1013.98
2022-12-27T01:16:04.166Z,1013.98
2022-12-27T01:16:50.129Z,1013.98
2022-12-27T01:17:36.073Z,1014.19
2022-12-27T01:18:22.123Z,1014.09
2022-12-27T01:19:08.089Z,1013.88
2022-12-27T01:19:54.155Z,1014.19
2022-12-27T01:20:40.193Z,1014.19
2022-12-27T01:21:26.405Z,1013.88
2022-12-27T01:22:12.373Z,1014.09
2022-12-27T01:22:58.243Z,1014.09
2022-12-27T01:23:44.158Z,1014.09
2022-12-27T01:24:30.112Z,1014.29
2022-12-27T01:25:16.184Z,1014.09
2022-12-27T01:26:02.162Z,1013.88
2022-12-27T01:26:48.299Z,1013.88
2022-12-27T01:27:34.245Z,1014.09
2022-12-27T01:28:20.099Z,1013.88
2022-12-27T01:29:06.106Z,1014.09
2022-12-27T01:29:52.149Z,1014.09
2022-12-27T01:30:38.287Z,1014.09
2022-12-27T01:31:24.308Z,1014.09
2022-12-27T01:32:10.232Z,1014.19
2022-12-27T01:32:56.146Z,1014.09
2022-12-27T01:33:42.215Z,1014.09
2022-12-27T01:34:28.165Z,1014.29
2022-12-27T01:35:14.136Z,1014.09
2022-12-27T01:36:00.285Z,1014.29
2022-12-27T01:36:46.077Z,1014.29
2022-12-27T01:37:32.161Z,1014.09
2022-12-27T01:38:18.206Z,1014.19
2022-12-27T01:39:04.231Z,1014.29
2022-12-27T01:39:50.191Z,1014.29
2022-12-27T01:40:36.156Z,1014.19
2022-12-27T01:41:22.219Z,1014.29
2022-12-27T01:42:08.127Z,1014.19
2022-12-27T01:42:54.155Z,1014.09
2022-12-27T01:43:40.188Z,1014.09
2022-12-27T01:44:26.211Z,1014.19
2022-12-27T01:45:12.205Z,1014.09
2022-12-27T01:45:58.258Z,1014.29
2022-12-27T01:46:44.116Z,1014.29
2022-12-27T01:47:30.217Z,1014.39
2022-12-27T01:48:16.267Z,1014.09
2022-12-27T01:49:05.108Z,1014.29
2022-12-27T01:49:48.239Z,1014.29
2022-12-27T01:50:34.199Z,1014.39
2022-12-27T01:51:20.211Z,1014.49
2022-12-27T01:52:06.311Z,1014.39
2022-12-27T01:52:52.270Z,1014.39
2022-12-27T01:53:38.497Z,1014.59
2022-12-27T01:54:24.217Z,1014.59
2022-12-27T01:55:10.249Z,1014.19
2022-12-27T01:55:56.252Z,1014.59
2022-12-27T01:56:42.276Z,1014.59
2022-12-27T01:57:28.183Z,1014.39
2022-12-27T01:58:14.207Z,1014.19
2022-12-27T01:59:00.220Z,1014.29
2022-12-27T01:59:46.177Z,1014.29
2022-12-27T02:00:32.353Z,1014.19
2022-12-27T02:01:18.323Z,1014.29
2022-12-27T02:02:04.399Z,1014.39
2022-12-27T02:02:50.208Z,1014.39
2022-12-27T02:03:36.245Z,1014.59
2022-12-27T02:04:22.176Z,1014.49
2022-12-27T02:05:08.214Z,1014.39
2022-12-27T02:05:54.252Z,1014.39
2022-12-27T02:06:40.238Z,1014.39
2022-12-27T02:07:26.240Z,1014.49
2022-12-27T02:08:12.277Z,1014.29
2022-12-27T02:08:58.266Z,1014.29
2022-12-27T02:09:44.197Z,1014.29
2022-12-27T02:10:30.211Z,1014.39
2022-12-27T02:11:16.278Z,1014.70
2022-12-27T02:12:02.331Z,1014.39
2022-12-27T02:12:48.262Z,1014.39
2022-12-27T02:13:34.297Z,1014.29
2022-12-27T02:14:24.746Z,1014.49
2022-12-27T02:15:06.338Z,1014.49
2022-12-27T02:15:52.303Z,1014.49
2022-12-27T02:16:38.461Z,1014.49
2022-12-27T02:17:24.436Z,1014.39
2022-12-27T02:18:10.317Z,1014.49
2022-12-27T02:18:56.300Z,1014.59
2022-12-27T02:19:42.339Z,1014.59
2022-12-27T02:20:28.248Z,1014.49
2022-12-27T02:21:14.441Z,1014.70
2022-12-27T02:22:00.341Z,1014.49
2022-12-27T02:22:46.233Z,1014.49
2022-12-27T02:23:39.221Z,1014.29
2022-12-27T02:24:18.301Z,1014.39
2022-12-27T02:25:04.388Z,1014.49
2022-12-27T02:25:50.274Z,1014.49
2022-12-27T02:26:36.256Z,1014.39
2022-12-27T02:27:22.249Z,1014.39
2022-12-27T02:28:08.342Z,1014.49
2022-12-27T02:28:54.296Z,1014.59
2022-12-27T02:29:40.381Z,1014.59
2022-12-27T02:30:26.411Z,1014.59
2022-12-27T02:31:12.407Z,1014.29
2022-12-27T02:31:58.403Z,1014.59
2022-12-27T02:32:44.306Z,1014.59
2022-12-27T02:33:30.345Z,1014.49
2022-12-27T02:34:16.332Z,1014.59
2022-12-27T02:35:02.412Z,1014.39
2022-12-27T02:35:48.333Z,1014.39
2022-12-27T02:36:34.366Z,1014.59
2022-12-27T02:37:20.305Z,1014.49
2022-12-27T02:38:06.251Z,1014.70
2022-12-27T02:38:52.289Z,1014.70
2022-12-27T02:39:38.376Z,1014.59
2022-12-27T02:40:24.338Z,1014.59
2022-12-27T02:41:10.352Z,1014.49
2022-12-27T02:41:56.441Z,1014.80
2022-12-27T02:42:42.445Z,1014.80
2022-12-27T02:43:28.419Z,1014.80
2022-12-27T02:44:14.431Z,1014.59
2022-12-27T02:45:00.640Z,1014.59
2022-12-27T02:45:46.314Z,1014.59
2022-12-27T02:46:32.400Z,1014.49
2022-12-27T02:47:18.408Z,1014.59
2022-12-27T02:48:04.528Z,1014.49
2022-12-27T02:48:50.399Z,1014.49
2022-12-27T02:49:36.411Z,1014.49
2022-12-27T02:50:22.348Z,1014.80
2022-12-27T02:51:08.474Z,1014.49
2022-12-27T02:51:54.362Z,1014.49
2022-12-27T02:52:40.405Z,1014.49
2022-12-27T02:53:26.346Z,1014.49
2022-12-27T02:54:12.400Z,1014.59
2022-12-27T02:54:58.431Z,1014.59
2022-12-27T02:55:44.383Z,1014.59
2022-12-27T02:56:30.387Z,1014.19
2022-12-27T02:57:16.411Z,1014.59
2022-12-27T02:58:02.456Z,1014.49
2022-12-27T02:58:48.403Z,1014.49
2022-12-27T02:59:34.422Z,1014.29
2022-12-27T03:00:20.471Z,1014.49
2022-12-27T03:01:06.371Z,1014.70
2022-12-27T03:01:52.439Z,1014.70
2022-12-27T03:02:38.516Z,1014.49
2022-12-27T03:03:24.422Z,1014.70
2022-12-27T03:04:10.466Z,1014.59
2022-12-27T03:04:56.388Z,1014.70
2022-12-27T03:05:42.462Z,1014.70
2022-12-27T03:06:28.367Z,1014.70
2022-12-27T03:07:14.328Z,1014.49
2022-12-27T03:08:00.514Z,1014.39
2022-12-27T03:08:46.435Z,1014.39
2022-12-27T03:09:32.444Z,1014.70
2022-12-27T03:10:18.420Z,1014.49
2022-12-27T03:11:04.435Z,1014.59
2022-12-27T03:11:50.415Z,1014.59
2022-12-27T03:12:36.499Z,1014.59
2022-12-27T03:13:22.431Z,1014.70
2022-12-27T03:14:08.452Z,1014.49
2022-12-27T03:14:54.413Z,1014.39
2022-12-27T03:15:40.662Z,1014.39
2022-12-27T03:16:26.604Z,1014.49
2022-12-27T03:17:12.415Z,1014.49
2022-12-27T03:17:58.593Z,1014.59
2022-12-27T03:18:44.465Z,1014.59
2022-12-27T03:19:30.542Z,1014.59
2022-12-27T03:20:16.380Z,1014.59
2022-12-27T03:21:02.535Z,1014.70
2022-12-27T03:21:48.447Z,1014.70
2022-12-27T03:22:34.583Z,1014.59
2022-12-27T03:23:20.541Z,1014.29
2022-12-27T03:24:06.440Z,1014.59
2022-12-27T03:24:52.415Z,1014.59
2022-12-27T03:25:38.592Z,1014.49
2022-12-27T03:26:24.472Z,1014.70
2022-12-27T03:27:10.438Z,1014.59
2022-12-27T03:27:56.592Z,1014.39
2022-12-27T03:28:42.402Z,1014.39
2022-12-27T03:29:28.464Z,1014.70
2022-12-27T03:30:14.543Z,1014.80
2022-12-27T03:31:00.654Z,1014.49
2022-12-27T03:31:46.432Z,1014.49
2022-12-27T03:32:32.509Z,1014.59
2022-12-27T03:33:18.525Z,1014.59
2022-12-27T03:34:04.502Z,1014.80
2022-12-27T03:34:50.562Z,1014.80
2022-12-27T03:35:36.462Z,1014.59
2022-12-27T03:36:22.497Z,1014.70
2022-12-27T03:37:08.540Z,1014.80
2022-12-27T03:37:54.505Z,1014.70
2022-12-27T03:38:40.447Z,1014.70
2022-12-27T03:39:26.521Z,1014.70
2022-12-27T03:40:12.503Z,1014.70
2022-12-27T03:40:58.563Z,1014.80
2022-12-27T03:41:44.520Z,1014.80
2022-12-27T03:42:30.833Z,1014.49
2022-12-27T03:43:16.490Z,1014.70
2022-12-27T03:44:02.454Z,1014.29
2022-12-27T03:44:48.557Z,1014.29
2022-12-27T03:45:34.826Z,1014.29
2022-12-27T03:46:20.564Z,1014.29
2022-12-27T03:47:06.449Z,1014.49
2022-12-27T03:47:52.537Z,1014.49
2022-12-27T03:48:38.865Z,1014.49
2022-12-27T03:49:24.605Z,1014.59
2022-12-27T03:50:10.510Z,1014.59
2022-12-27T03:50:56.692Z,1014.29
2022-12-27T03:51:42.563Z,1014.29
2022-12-27T03:52:28.525Z,1014.39
2022-12-27T03:53:14.551Z,1014.70
2022-12-27T03:54:00.523Z,1014.39
2022-12-27T03:54:46.496Z,1014.39
2022-12-27T03:55:33.619Z,1014.49
2022-12-27T03:56:18.515Z,1014.49
2022-12-27T03:57:04.469Z,1014.59
2022-12-27T03:57:50.465Z,1014.59
2022-12-27T03:58:36.450Z,1014.59
2022-12-27T03:59:22.549Z,1014.39
2022-12-27T04:00:08.591Z,1014.59
2022-12-27T04:00:54.501Z,1014.59
2022-12-27T04:01:40.624Z,1014.59
2022-12-27T04:02:26.633Z,1014.59
2022-12-27T04:03:12.616Z,1014.29
2022-12-27T04:03:58.553Z,1014.90
2022-12-27T04:04:44.517Z,1014.90
2022-12-27T04:05:30.488Z,1014.39
2022-12-27T04:06:16.491Z,1014.70
2022-12-27T04:07:02.576Z,1014.59
2022-12-27T04:07:48.549Z,1014.59
2022-12-27T04:08:34.542Z,1014.59
2022-12-27T04:09:20.558Z,1014.49
2022-12-27T04:10:06.505Z,1014.70
2022-12-27T04:10:52.507Z,1014.70
2022-12-27T04:11:38.551Z,1014.49
2022-12-27T04:12:24.595Z,1014.80
2022-12-27T04:13:10.617Z,1014.90
2022-12-27T04:13:56.561Z,1014.70
2022-12-27T04:14:42.562Z,1014.70
2022-12-27T04:15:28.573Z,1014.59
2022-12-27T04:16:14.562Z,1014.80
2022-12-27T04:17:00.548Z,1014.39
2022-12-27T04:17:46.496Z,1014.39
2022-12-27T04:18:32.555Z,1014.49
2022-12-27T04:19:18.577Z,1014.90
2022-12-27T04:20:04.590Z,1015.00
2022-12-27T04:20:50.597Z,1015.00
2022-12-27T04:21:36.524Z,1014.49
2022-12-27T04:22:22.533Z,1014.70
2022-12-27T04:23:08.549Z,1014.70
2022-12-27T04:23:54.598Z,1014.70
2022-12-27T04:24:40.573Z,1014.70
2022-12-27T04:25:26.573Z,1014.59
2022-12-27T04:26:12.553Z,1014.59
2022-12-27T04:26:58.628Z,1014.59
2022-12-27T04:27:44.538Z,1014.59
2022-12-27T04:28:30.565Z,1014.49
2022-12-27T04:29:16.630Z,1014.59
2022-12-27T04:30:02.751Z,1014.70
2022-12-27T04:30:48.634Z,1014.70
2022-12-27T04:31:34.631Z,1014.70
2022-12-27T04:32:20.597Z,1014.80
2022-12-27T04:33:06.694Z,1014.90
2022-12-27T04:33:52.551Z,1014.90
2022-12-27T04:34:38.609Z,1014.70
2022-12-27T04:35:24.628Z,1014.49
2022-12-27T04:36:10.664Z,1014.80
2022-12-27T04:36:56.574Z,1014.70
2022-12-27T04:37:42.589Z,1014.70
2022-12-27T04:38:28.552Z,1014.59
2022-12-27T04:39:14.577Z,1014.59
2022-12-27T04:40:00.603Z,1014.29
2022-12-27T04:40:46.556Z,1014.29
2022-12-27T04:41:32.572Z,1014.49
2022-12-27T04:42:18.623Z,1014.70
2022-12-27T04:43:04.575Z,1014.59
2022-12-27T04:43:50.641Z,1014.59
2022-12-27T04:44:36.579Z,1014.70
2022-12-27T04:45:22.654Z,1014.70
2022-12-27T04:46:08.620Z,1014.49
2022-12-27T04:46:54.631Z,1014.59
2022-12-27T04:47:40.578Z,1014.59
2022-12-27T04:48:26.664Z,1014.70
2022-12-27T04:49:12.686Z,1014.80
2022-12-27T04:49:58.621Z,1014.59
2022-12-27T04:50:44.598Z,1014.59
2022-12-27T04:51:30.657Z,1014.59
2022-12-27T04:52:16.626Z,1014.90
2022-12-27T04:53:02.632Z,1014.80
2022-12-27T04:53:48.675Z,1014.80
2022-12-27T04:54:34.739Z,1014.59
2022-12-27T04:55:20.670Z,1014.59
2022-12-27T04:56:06.632Z,1014.70
2022-12-27T04:56:52.633Z,1014.70
2022-12-27T04:57:38.682Z,1014.70
2022-12-27T04:58:24.703Z,1014.70
2022-12-27T04:59:10.740Z,1014.70
2022-12-27T04:59:56.653Z,1014.29
2022-12-27T05:00:42.799Z,1014.29
2022-12-27T05:01:28.775Z,1014.80
2022-12-27T05:02:14.697Z,1014.29
2022-12-27T05:03:00.840Z,1014.59
2022-12-27T05:03:46.750Z,1014.59
2022-12-27T05:04:32.670Z,1014.70
2022-12-27T05:05:18.676Z,1014.59
2022-12-27T05:06:04.676Z,1014.49
2022-12-27T05:06:50.701Z,1014.49
2022-12-27T05:07:36.688Z,1014.49
2022-12-27T05:08:22.642Z,1014.59
2022-12-27T05:09:08.672Z,1014.70
2022-12-27T05:09:54.675Z,1014.39
2022-12-27T05:10:40.717Z,1014.39
2022-12-27T05:11:26.690Z,1014.59
2022-12-27T05:12:12.650Z,1014.59
2022-12-27T05:12:58.759Z,1014.70
2022-12-27T05:13:44.622Z,1014.70
2022-12-27T05:14:30.678Z,1014.90
2022-12-27T05:15:16.721Z,1014.70
2022-12-27T05:16:02.741Z,1014.80
2022-12-27T05:16:48.703Z,1014.80
2022-12-27T05:17:34.680Z,1014.70
2022-12-27T05:18:20.705Z,1015.00
2022-12-27T05:19:06.786Z,1014.80
2022-12-27T05:19:52.687Z,1014.80
2022-12-27T05:20:38.717Z,1014.80
2022-12-27T05:21:24.704Z,1014.90
2022-12-27T05:22:10.699Z,1014.80
2022-12-27T05:22:56.719Z,1014.80
2022-12-27T05:23:42.731Z,1014.80
2022-12-27T05:24:28.676Z,1015.00
2022-12-27T05:25:14.714Z,1014.80
2022-12-27T05:26:00.703Z,1014.90
2022-12-27T05:26:46.695Z,1014.90
2022-12-27T05:27:32.751Z,1014.80
2022-12-27T05:28:18.729Z,1014.90
2022-12-27T05:29:04.674Z,1014.90
2022-12-27T05:29:50.717Z,1014.90
2022-12-27T05:30:36.832Z,1015.10
2022-12-27T05:31:22.813Z,1014.90
2022-12-27T05:32:12.989Z,1015.10
2022-12-27T05:32:54.688Z,1014.90
2022-12-27T05:33:40.781Z,1014.90
2022-12-27T05:34:26.841Z,1015.00
2022-12-27T05:35:12.735Z,1015.00
2022-12-27T05:35:58.840Z,1014.90
2022-12-27T05:36:44.760Z,1014.90
2022-12-27T05:37:30.814Z,1015.20
2022-12-27T05:38:16.723Z,1014.90
2022-12-27T05:39:02.793Z,1015.00
2022-12-27T05:39:48.747Z,1015.00
2022-12-27T05:40:34.744Z,1015.00
2022-12-27T05:41:20.806Z,1015.10
2022-12-27T05:42:06.729Z,1015.10
2022-12-27T05:42:52.762Z,1015.10
2022-12-27T05:43:38.843Z,1014.90
2022-12-27T05:44:24.775Z,1015.00
2022-12-27T05:45:10.874Z,1015.00
2022-12-27T05:45:56.821Z,1014.90
2022-12-27T05:46:42.855Z,1014.90
2022-12-27T05:47:28.781Z,1015.00
2022-12-27T05:48:14.760Z,1015.10
2022-12-27T05:49:00.780Z,1015.10
2022-12-27T05:49:46.740Z,1015.10
2022-12-27T05:50:32.813Z,1015.00
2022-12-27T05:51:18.846Z,1015.00
2022-12-27T05:52:04.780Z,1015.20
2022-12-27T05:52:50.806Z,1015.20
2022-12-27T05:53:36.848Z,1014.80
2022-12-27T05:54:22.820Z,1015.10
2022-12-27T05:55:08.799Z,1014.90
2022-12-27T05:55:54.771Z,1014.90
2022-12-27T05:56:40.829Z,1014.90
2022-12-27T05:57:26.826Z,1015.00
2022-12-27T05:58:12.794Z,1015.20
2022-12-27T05:58:58.826Z,1015.20
2022-12-27T05:59:44.793Z,1015.20
2022-12-27T06:00:30.839Z,1015.20
2022-12-27T06:01:16.888Z,1015.31
2022-12-27T06:02:03.022Z,1015.10
2022-12-27T06:02:48.921Z,1015.10
2022-12-27T06:03:34.854Z,1014.90
2022-12-27T06:04:20.882Z,1015.10
2022-12-27T06:05:06.131Z,1015.10
2022-12-27T06:05:52.852Z,1015.20
2022-12-27T06:06:38.836Z,1015.20
2022-12-27T06:07:24.868Z,1015.20
2022-12-27T06:08:10.919Z,1015.10
2022-12-27T06:08:56.840Z,1015.41
2022-12-27T06:09:42.816Z,1015.41
2022-12-27T06:10:28.838Z,1015.51
2022-12-27T06:11:14.832Z,1015.41
2022-12-27T06:12:00.863Z,1015.51
2022-12-27T06:12:46.854Z,1015.51
2022-12-27T06:13:32.866Z,1015.51
2022-12-27T06:14:18.888Z,1015.31
2022-12-27T06:15:04.912Z,1015.41
2022-12-27T06:15:50.890Z,1015.41
2022-12-27T06:16:36.919Z,1015.20
2022-12-27T06:17:22.910Z,1015.41
2022-12-27T06:18:08.846Z,1015.41
2022-12-27T06:18:54.886Z,1015.20
2022-12-27T06:19:40.918Z,1015.20
2022-12-27T06:20:26.923Z,1015.20
2022-12-27T06:21:12.845Z,1015.20
2022-12-27T06:21:58.860Z,1015.20
2022-12-27T06:22:44.905Z,1015.20
2022-12-27T06:23:30.928Z,1015.20
2022-12-27T06:24:16.847Z,1015.10
2022-12-27T06:25:03.112Z,1015.41
2022-12-27T06:25:48.881Z,1015.41
2022-12-27T06:26:34.864Z,1015.41
2022-12-27T06:27:20.989Z,1015.31
2022-12-27T06:28:06.871Z,1015.41
2022-12-27T06:28:52.842Z,1015.41
2022-12-27T06:29:38.865Z,1015.31
2022-12-27T06:30:25.016Z,1015.51
2022-12-27T06:31:11.127Z,1015.41
2022-12-27T06:31:56.937Z,1015.41
2022-12-27T06:32:42.854Z,1015.41
2022-12-27T06:33:28.906Z,1015.10
2022-12-27T06:34:14.886Z,1015.41
2022-12-27T06:35:00.988Z,1015.31
2022-12-27T06:35:46.871Z,1015.31
2022-12-27T06:36:32.893Z,1015.41
2022-12-27T06:37:19.000Z,1015.31
2022-12-27T06:38:04.919Z,1015.61
2022-12-27T06:38:50.935Z,1015.61
2022-12-27T06:39:36.940Z,1015.41
2022-12-27T06:40:22.938Z,1015.41
2022-12-27T06:41:08.951Z,1015.20
2022-12-27T06:41:54.882Z,1015.41
2022-12-27T06:42:40.927Z,1015.41
2022-12-27T06:43:26.956Z,1015.41
2022-12-27T06:44:12.912Z,1015.51
2022-12-27T06:44:58.938Z,1015.41
2022-12-27T06:45:45.133Z,1015.41
2022-12-27T06:46:30.906Z,1015.31
2022-12-27T06:47:16.216Z,1015.31
2022-12-27T06:48:03.053Z,1015.61
2022-12-27T06:48:49.031Z,1015.61
2022-12-27T06:49:34.969Z,1015.20
2022-12-27T06:50:20.983Z,1015.10
2022-12-27T06:51:06.999Z,1015.20
2022-12-27T06:51:59.052Z,1015.20
2022-12-27T06:52:38.912Z,1015.20
2022-12-27T06:53:24.916Z,1015.10
2022-12-27T06:54:11.334Z,1015.41
2022-12-27T06:54:57.016Z,1015.20
2022-12-27T06:55:42.905Z,1015.20
2022-12-27T06:56:28.931Z,1015.10
2022-12-27T06:57:14.938Z,1015.10
2022-12-27T06:58:00.981Z,1015.20
2022-12-27T06:58:46.961Z,1015.20
2022-12-27T06:59:33.129Z,1015.41
2022-12-27T07:00:19.104Z,1015.31
2022-12-27T07:01:05.127Z,1015.31
2022-12-27T07:01:51.194Z,1015.31
2022-12-27T07:02:37.081Z,1015.41
2022-12-27T07:03:23.032Z,1015.20
2022-12-27T07:04:09.004Z,1015.51
2022-12-27T07:04:54.972Z,1015.20
2022-12-27T07:05:41.067Z,1015.20
2022-12-27T07:06:26.987Z,1015.51
2022-12-27T07:07:15.815Z,1015.71
2022-12-27T07:07:59.075Z,1015.51
2022-12-27T07:08:44.979Z,1015.51
2022-12-27T07:09:31.742Z,1015.51
2022-12-27T07:10:17.078Z,1015.51
2022-12-27T07:11:02.988Z,1015.51
2022-12-27T07:11:49.028Z,1015.51
2022-12-27T07:12:36.904Z,1015.41
2022-12-27T07:13:21.025Z,1015.51
2022-12-27T07:14:06.986Z,1015.31
2022-12-27T07:14:52.988Z,1015.31
2022-12-27T07:15:39.069Z,1015.31
2022-12-27T07:16:25.122Z,1015.61
2022-12-27T07:17:11.516Z,1015.71
2022-12-27T07:17:57.036Z,1015.81
2022-12-27T07:18:43.004Z,1015.81
2022-12-27T07:19:29.008Z,1015.51
2022-12-27T07:20:15.061Z,1015.61
2022-12-27T07:21:01.012Z,1015.61
2022-12-27T07:21:47.003Z,1015.61
2022-12-27T07:22:33.074Z,1015.61
2022-12-27T07:23:19.594Z,1015.61
2022-12-27T07:24:05.129Z,1015.61
2022-12-27T07:24:51.213Z,1015.61
2022-12-27T07:25:37.069Z,1015.71
2022-12-27T07:26:23.078Z,1015.92
2022-12-27T07:27:09.095Z,1015.71
2022-12-27T07:27:55.103Z,1015.61
2022-12-27T07:28:41.167Z,1015.61
2022-12-27T07:29:27.120Z,1015.71
2022-12-27T07:30:13.224Z,1015.81
2022-12-27T07:30:59.162Z,1015.71
2022-12-27T07:31:45.269Z,1015.71
2022-12-27T07:32:31.129Z,1015.71
2022-12-27T07:33:17.092Z,1015.92
2022-12-27T07:34:03.288Z,1015.92
2022-12-27T07:34:49.142Z,1015.92
2022-12-27T07:35:36.275Z,1015.81
2022-12-27T07:36:21.178Z,1015.61
2022-12-27T07:37:07.138Z,1015.81
2022-12-27T07:37:53.137Z,1015.81
2022-12-27T07:38:39.139Z,1015.92
2022-12-27T07:39:25.293Z,1015.92
2022-12-27T07:40:11.825Z,1015.81
2022-12-27T07:40:57.157Z,1016.08
2022-12-27T07:41:43.194Z,1016.08
2022-12-27T07:42:29.178Z,1015.98
2022-12-27T07:43:15.181Z,1015.92
2022-12-27T07:44:01.202Z,1016.19
2022-12-27T07:44:47.131Z,1016.19
2022-12-27T07:45:33.222Z,1016.08
2022-12-27T07:46:19.339Z,1015.98
2022-12-27T07:47:05.206Z,1016.08
2022-12-27T07:47:51.186Z,1016.08
2022-12-27T07:48:37.171Z,1015.98
2022-12-27T07:49:23.171Z,1016.08
2022-12-27T07:50:09.184Z,1016.29
2022-12-27T07:50:55.170Z,1016.29
2022-12-27T07:51:41.146Z,1016.29
2022-12-27T07:52:27.227Z,1016.29
2022-12-27T07:53:13.139Z,1016.08
2022-12-27T07:53:59.233Z,1016.19
2022-12-27T07:54:45.168Z,1016.19
2022-12-27T07:55:31.207Z,1016.19
2022-12-27T07:56:23.459Z,1016.19
2022-12-27T07:57:03.259Z,1016.19
2022-12-27T07:57:49.167Z,1016.19
2022-12-27T07:58:35.235Z,1016.29
2022-12-27T07:59:21.227Z,1016.39
2022-12-27T08:00:07.323Z,1016.19
2022-12-27T08:00:53.392Z,1016.19
2022-12-27T08:01:39.338Z,1016.19
2022-12-27T08:02:25.281Z,1016.19
2022-12-27T08:03:11.713Z,1016.19
2022-12-27T08:03:57.223Z,1016.59
2022-12-27T08:04:43.169Z,1016.59
2022-12-27T08:05:29.251Z,1016.49
2022-12-27T08:06:15.209Z,1016.29
2022-12-27T08:07:01.231Z,1016.49
2022-12-27T08:07:47.228Z,1016.49
2022-12-27T08:08:33.263Z,1016.39
2022-12-27T08:09:19.292Z,1016.29
2022-12-27T08:10:05.244Z,1016.49
2022-12-27T08:10:51.226Z,1016.49
2022-12-27T08:11:37.230Z,1016.49
2022-12-27T08:12:23.209Z,1016.39
2022-12-27T08:13:09.204Z,1016.39
2022-12-27T08:13:55.265Z,1016.49
2022-12-27T08:14:41.200Z,1016.49
2022-12-27T08:15:27.341Z,1016.49
2022-12-27T08:16:13.439Z,1016.19
2022-12-27T08:16:59.333Z,1016.19
2022-12-27T08:17:45.291Z,1016.19
2022-12-27T08:18:31.289Z,1016.39
2022-12-27T08:19:17.208Z,1016.39
2022-12-27T08:20:03.503Z,1016.19
2022-12-27T08:20:49.273Z,1016.19
2022-12-27T08:21:35.316Z,1016.29
2022-12-27T08:22:21.269Z,1016.39
2022-12-27T08:23:07.251Z,1016.49
2022-12-27T08:23:53.227Z,1016.49
2022-12-27T08:24:39.245Z,1016.49
2022-12-27T08:25:25.264Z,1016.19
2022-12-27T08:26:11.886Z,1016.69
2022-12-27T08:26:57.303Z,1016.69
2022-12-27T08:27:43.356Z,1016.69
2022-12-27T08:28:29.284Z,1016.59
2022-12-27T08:29:15.287Z,1016.39
2022-12-27T08:30:01.985Z,1016.69
2022-12-27T08:30:47.346Z,1016.69
2022-12-27T08:31:33.313Z,1016.49
2022-12-27T08:32:19.283Z,1016.69
2022-12-27T08:33:05.337Z,1016.19
2022-12-27T08:33:58.069Z,1016.19
2022-12-27T08:34:37.249Z,1016.19
2022-12-27T08:35:52.088Z,1016.29
2022-12-27T08:36:45.183Z,1016.39
2022-12-27T08:39:18.399Z,1016.39
2022-12-27T08:46:12.383Z,1016.49
2022-12-27T08:46:53.343Z,1016.49
2022-12-27T08:47:39.349Z,1016.69
2022-12-27T08:48:25.339Z,1016.49
2022-12-27T08:49:12.011Z,1016.59
2022-12-27T08:49:57.351Z,1016.59
2022-12-27T08:50:43.292Z,1016.59
2022-12-27T08:51:35.790Z,1016.80
2022-12-27T08:52:15.381Z,1016.69
2022-12-27T08:53:01.394Z,1016.49
2022-12-27T08:53:47.306Z,1016.49
2022-12-27T08:54:33.319Z,1016.69
2022-12-27T08:55:19.435Z,1016.80
2022-12-27T08:56:05.368Z,1016.80
2022-12-27T08:56:51.369Z,1016.80
2022-12-27T08:57:37.415Z,1016.69
2022-12-27T08:58:23.288Z,1016.80
2022-12-27T08:59:09.334Z,1016.80
2022-12-27T08:59:55.305Z,1016.69
2022-12-27T09:00:41.426Z,1016.69
2022-12-27T09:01:27.537Z,1016.69
2022-12-27T09:02:13.396Z,1016.69
2022-12-27T09:02:59.442Z,1016.80
2022-12-27T09:03:45.359Z,1016.80
2022-12-27T09:04:31.373Z,1016.69
2022-12-27T09:05:17.382Z,1016.69
2022-12-27T09:06:03.584Z,1016.69
2022-12-27T09:06:49.376Z,1016.69
2022-12-27T09:07:35.409Z,1016.59
2022-12-27T09:08:21.366Z,1016.69
2022-12-27T09:09:07.427Z,1016.59
2022-12-27T09:09:53.329Z,1016.59
2022-12-27T09:10:39.373Z,1016.80
2022-12-27T09:11:25.419Z,1016.80
2022-12-27T09:12:12.097Z,1016.59
2022-12-27T09:12:57.415Z,1016.69
2022-12-27T09:13:43.402Z,1016.69
2022-12-27T09:14:29.466Z,1016.59
2022-12-27T09:15:15.518Z,1016.90
2022-12-27T09:16:01.475Z,1016.80
2022-12-27T09:16:47.452Z,1016.80
2022-12-27T09:17:33.492Z,1016.69
2022-12-27T09:18:19.428Z,1016.90
2022-12-27T09:19:05.444Z,1016.69
2022-12-27T09:19:51.431Z,1016.69
2022-12-27T09:20:37.449Z,1016.90
2022-12-27T09:21:23.399Z,1016.80
2022-12-27T09:22:09.415Z,1017.10
2022-12-27T09:22:55.504Z,1016.90
2022-12-27T09:23:41.452Z,1016.90
2022-12-27T09:24:27.441Z,1016.80